Time;durP1;ratioP1;P1;durP2;ratioP2;P2;SDS_P1;SDS_P2;PMS_P1;PMS_P2;Temp;Humidity;BMP_temperature;BMP_pressure;BME280_temperature;BME280_humidity;BME280_pressure;Samples;Min_cycle;Max_cycle;Signal;HPM_P1;HPM_P2
2021/11/13 00:01:18;;;;;;;32.27;25.90;;;3.90;99.90;;;;;;4994731;28;20519;-56
2021/11/13 00:03:43;;;;;;;26.53;23.63;;;4.00;99.90;;;;;;5013420;28;20557;-57
2021/11/13 00:06:09;;;;;;;23.87;21.47;;;3.90;99.90;;;;;;5013379;28;20505;-54
2021/11/13 00:08:35;;;;;;;25.10;22.57;;;3.70;99.90;;;;;;5013085;28;20168;-58
2021/11/13 00:11:00;;;;;;;24.10;21.60;;;3.70;99.90;;;;;;5013639;28;20686;-58
2021/11/13 00:13:26;;;;;;;25.30;22.30;;;3.60;99.90;;;;;;5014034;28;20200;-56
2021/11/13 00:15:52;;;;;;;25.13;22.43;;;3.70;99.90;;;;;;5017074;28;20633;-58
2021/11/13 00:18:18;;;;;;;26.53;23.43;;;3.80;99.90;;;;;;5017184;28;20171;-58
2021/11/13 00:20:44;;;;;;;23.70;21.37;;;3.80;99.90;;;;;;5017123;28;20403;-57
2021/11/13 00:23:10;;;;;;;23.73;21.33;;;3.90;99.90;;;;;;5017117;28;20558;-56
2021/11/13 00:25:36;;;;;;;24.67;22.03;;;3.90;99.90;;;;;;5016484;28;20249;-58
2021/11/13 00:28:02;;;;;;;24.33;21.73;;;3.90;99.90;;;;;;5016978;28;20402;-57
2021/11/13 00:30:28;;;;;;;23.17;20.20;;;3.90;99.90;;;;;;5016699;28;20449;-55
2021/11/13 00:32:54;;;;;;;22.57;20.23;;;3.90;99.90;;;;;;5016978;28;20464;-50
2021/11/13 00:35:20;;;;;;;23.53;21.03;;;3.90;99.90;;;;;;5016913;28;20192;-55
2021/11/13 00:37:46;;;;;;;20.03;17.97;;;3.90;99.90;;;;;;5017171;28;20418;-55
2021/11/13 00:40:15;;;;;;;22.07;19.90;;;3.90;99.90;;;;;;5016552;28;20403;-56
2021/11/13 00:42:41;;;;;;;23.37;20.97;;;3.90;99.90;;;;;;5017084;28;20207;-56
2021/11/13 00:45:07;;;;;;;22.73;20.47;;;3.90;99.90;;;;;;5016483;28;20935;-58
2021/11/13 00:47:33;;;;;;;24.33;21.37;;;3.90;99.90;;;;;;5016867;28;20464;-55
2021/11/13 00:49:59;;;;;;;24.90;21.50;;;3.80;99.90;;;;;;5017089;28;20395;-57
2021/11/13 00:52:25;;;;;;;24.03;21.10;;;3.90;99.90;;;;;;5016942;28;20164;-58
2021/11/13 00:54:50;;;;;;;21.73;19.60;;;4.00;99.90;;;;;;5016241;28;20211;-58
2021/11/13 00:57:16;;;;;;;24.07;21.47;;;4.20;99.90;;;;;;5016928;28;20180;-58
2021/11/13 00:59:42;;;;;;;24.93;22.23;;;4.20;99.90;;;;;;5016497;28;20403;-57
2021/11/13 01:02:08;;;;;;;25.60;22.97;;;4.10;99.90;;;;;;5016694;28;20178;-58
2021/11/13 01:04:36;;;;;;;26.00;22.03;;;4.00;99.90;;;;;;5016373;28;20231;-56
2021/11/13 01:07:02;;;;;;;26.80;23.87;;;4.00;99.90;;;;;;5016885;28;20403;-58
2021/11/13 01:09:28;;;;;;;23.80;21.40;;;4.10;99.90;;;;;;5014470;28;20943;-56
2021/11/13 01:11:53;;;;;;;26.40;22.30;;;4.10;99.90;;;;;;5016376;28;20418;-58
2021/11/13 01:14:19;;;;;;;27.17;24.27;;;4.20;99.90;;;;;;5015963;28;20184;-57
2021/11/13 01:16:44;;;;;;;30.70;25.50;;;4.30;99.90;;;;;;5016190;28;20176;-58
2021/11/13 01:19:11;;;;;;;31.27;27.90;;;4.20;99.90;;;;;;5016069;28;20399;-58
2021/11/13 01:21:37;;;;;;;33.23;29.27;;;4.30;99.90;;;;;;5016040;28;20179;-55
2021/11/13 01:24:03;;;;;;;34.80;28.17;;;4.50;99.90;;;;;;5015563;28;20450;-58
2021/11/13 01:26:29;;;;;;;33.00;27.00;;;4.70;99.90;;;;;;5015183;28;20892;-59
2021/11/13 01:28:54;;;;;;;32.90;29.07;;;4.60;99.90;;;;;;4998135;28;20414;-56
2021/11/13 01:31:20;;;;;;;36.10;29.50;;;4.60;99.90;;;;;;5016129;28;20233;-56
2021/11/13 01:33:46;;;;;;;33.20;27.37;;;4.60;99.90;;;;;;5016359;28;20196;-58
2021/11/13 01:36:12;;;;;;;32.10;25.93;;;4.60;99.90;;;;;;5016393;28;20176;-57
2021/11/13 01:38:39;;;;;;;33.53;26.47;;;4.60;99.90;;;;;;5015986;28;20407;-55
2021/11/13 01:41:06;;;;;;;53.60;32.70;;;4.50;99.90;;;;;;5015416;28;20418;-59
2021/11/13 01:43:33;;;;;;;58.83;29.00;;;4.40;99.90;;;;;;5015584;28;20973;-58
2021/11/13 01:46:01;;;;;;;41.20;30.37;;;4.30;99.90;;;;;;5015469;28;20411;-58
2021/11/13 01:48:29;;;;;;;37.93;29.60;;;4.20;99.90;;;;;;5015894;28;20814;-56
2021/11/13 01:50:55;;;;;;;40.50;28.53;;;4.20;99.90;;;;;;5015482;28;20498;-55
2021/11/13 01:53:22;;;;;;;40.13;29.60;;;4.20;99.90;;;;;;5015554;28;20458;-56
2021/11/13 01:55:47;;;;;;;41.23;29.73;;;4.10;99.90;;;;;;5015326;28;20807;-55
2021/11/13 01:58:14;;;;;;;61.47;28.30;;;3.90;99.90;;;;;;5015692;28;20403;-57
2021/11/13 02:00:50;;;;;;;30.40;24.53;;;4.00;99.90;;;;;;5015098;28;20169;-58
2021/11/13 02:03:17;;;;;;;41.50;28.40;;;3.80;99.90;;;;;;5015202;28;20952;-58
2021/11/13 02:05:42;;;;;;;35.70;24.90;;;3.70;99.90;;;;;;5015098;28;20431;-57
2021/11/13 02:08:08;;;;;;;45.80;29.23;;;3.90;99.90;;;;;;5016212;28;20414;-58
2021/11/13 02:10:35;;;;;;;31.80;23.93;;;4.10;99.90;;;;;;5014855;28;20195;-55
2021/11/13 02:13:01;;;;;;;33.83;24.70;;;4.20;99.90;;;;;;5015068;28;20178;-56
2021/11/13 02:15:28;;;;;;;30.27;24.43;;;4.30;99.90;;;;;;5014706;28;20505;-58
2021/11/13 02:17:55;;;;;;;27.53;23.27;;;4.30;99.90;;;;;;5015024;28;20850;-58
2021/11/13 02:20:22;;;;;;;42.03;27.60;;;4.50;99.90;;;;;;5014938;28;20411;-57
2021/11/13 02:22:49;;;;;;;30.10;23.40;;;4.60;99.90;;;;;;5014501;28;20447;-58
2021/11/13 02:25:20;;;;;;;40.60;26.90;;;4.60;99.90;;;;;;5014543;28;20446;-57
2021/11/13 02:27:46;;;;;;;30.23;23.47;;;4.30;99.90;;;;;;5015068;28;20911;-58
2021/11/13 02:30:13;;;;;;;32.70;26.17;;;4.30;99.90;;;;;;5014560;28;20419;-56
2021/11/13 02:32:39;;;;;;;33.73;26.63;;;4.40;99.90;;;;;;5014722;28;20776;-57
2021/11/13 02:35:08;;;;;;;31.37;25.03;;;4.50;99.90;;;;;;5014982;28;20840;-57
2021/11/13 02:37:35;;;;;;;27.67;23.77;;;4.60;99.90;;;;;;5015649;28;20410;-59
2021/11/13 02:40:03;;;;;;;25.77;22.70;;;4.70;99.90;;;;;;5014701;28;20450;-57
2021/11/13 02:42:29;;;;;;;27.17;24.13;;;4.70;99.90;;;;;;5014644;28;20442;-56
2021/11/13 02:44:55;;;;;;;26.77;23.63;;;4.60;99.90;;;;;;5014903;28;20431;-55
2021/11/13 02:47:21;;;;;;;28.20;24.67;;;4.50;99.90;;;;;;5014700;28;20854;-57
2021/11/13 02:49:47;;;;;;;31.47;24.00;;;4.60;99.90;;;;;;5014656;28;20430;-54
2021/11/13 02:52:14;;;;;;;67.30;29.93;;;4.70;99.90;;;;;;5014304;28;20418;-52
2021/11/13 02:54:47;;;;;;;36.33;25.53;;;4.70;99.90;;;;;;5013988;28;20470;-54
2021/11/13 02:57:13;;;;;;;31.77;24.03;;;4.70;99.90;;;;;;4996679;28;20430;-58
2021/11/13 02:59:46;;;;;;;28.17;23.80;;;4.70;99.90;;;;;;5014309;28;20407;-57
2021/11/13 03:02:12;;;;;;;28.47;24.30;;;4.80;99.90;;;;;;5015233;28;20482;-56
2021/11/13 03:04:38;;;;;;;54.63;28.80;;;4.70;99.90;;;;;;5014176;28;20537;-53
2021/11/13 03:07:05;;;;;;;27.80;23.07;;;4.70;99.90;;;;;;5014089;28;20175;-56
2021/11/13 03:09:30;;;;;;;29.57;23.33;;;4.60;99.90;;;;;;5014082;28;20187;-57
2021/11/13 03:11:56;;;;;;;41.93;27.93;;;4.60;99.90;;;;;;5014094;28;20411;-55
2021/11/13 03:14:22;;;;;;;38.17;26.23;;;4.50;99.90;;;;;;5013789;28;20203;-56
2021/11/13 03:16:47;;;;;;;44.73;26.03;;;4.50;99.90;;;;;;5014227;28;20438;-55
2021/11/13 03:19:13;;;;;;;28.97;23.20;;;4.30;99.90;;;;;;5013891;28;20191;-58
2021/11/13 03:21:43;;;;;;;30.57;23.80;;;4.10;99.90;;;;;;5013779;28;20230;-56
2021/11/13 03:24:09;;;;;;;33.10;25.97;;;4.10;99.90;;;;;;5013559;28;20204;-55
2021/11/13 03:26:37;;;;;;;26.07;22.57;;;4.20;99.90;;;;;;5014060;28;20407;-58
2021/11/13 03:29:09;;;;;;;23.70;21.17;;;4.30;99.90;;;;;;5014025;28;20410;-56
2021/11/13 03:31:34;;;;;;;22.80;20.03;;;4.00;99.90;;;;;;5013862;28;20434;-58
2021/11/13 03:34:00;;;;;;;20.47;17.67;;;4.00;99.90;;;;;;4996574;28;20458;-58
2021/11/13 03:36:26;;;;;;;23.90;21.40;;;4.10;99.90;;;;;;5013915;28;20203;-58
2021/11/13 03:38:52;;;;;;;20.80;18.67;;;4.20;99.90;;;;;;5013882;28;20176;-55
2021/11/13 03:41:19;;;;;;;23.50;21.10;;;4.10;99.90;;;;;;5013766;28;20218;-55
2021/11/13 03:43:45;;;;;;;21.00;18.80;;;4.10;99.90;;;;;;5013606;28;20458;-56
2021/11/13 03:46:11;;;;;;;19.87;17.80;;;4.30;99.90;;;;;;5013392;28;20399;-57
2021/11/13 03:48:37;;;;;;;18.40;16.57;;;4.40;99.90;;;;;;5013359;28;20771;-57
2021/11/13 03:51:04;;;;;;;21.63;18.63;;;4.50;99.90;;;;;;5013538;28;20494;-55
2021/11/13 03:53:30;;;;;;;22.30;20.07;;;4.50;99.90;;;;;;5013211;28;20258;-58
2021/11/13 03:55:55;;;;;;;23.30;20.90;;;4.40;99.90;;;;;;5013173;28;20975;-58
2021/11/13 03:58:21;;;;;;;21.97;19.63;;;4.20;99.90;;;;;;4995833;28;20782;-56
2021/11/13 04:00:47;;;;;;;24.43;20.77;;;4.20;99.90;;;;;;5013171;28;20637;-52
2021/11/13 04:03:13;;;;;;;20.80;18.63;;;4.30;99.90;;;;;;5012548;28;20195;-58
2021/11/13 04:05:38;;;;;;;23.13;20.67;;;4.40;99.90;;;;;;5013210;28;20226;-58
2021/11/13 04:08:04;;;;;;;20.17;17.97;;;4.40;99.90;;;;;;5013841;28;20411;-55
2021/11/13 04:10:30;;;;;;;22.23;20.00;;;4.40;99.90;;;;;;5013283;28;20164;-58
2021/11/13 04:12:56;;;;;;;19.90;17.90;;;4.50;99.90;;;;;;5013625;28;20521;-57
2021/11/13 04:15:22;;;;;;;19.80;17.80;;;4.50;99.90;;;;;;5012552;28;20481;-56
2021/11/13 04:17:49;;;;;;;20.70;18.60;;;4.50;99.90;;;;;;5013628;28;20179;-56
2021/11/13 04:20:15;;;;;;;20.50;18.40;;;4.30;99.90;;;;;;5013284;28;20956;-55
2021/11/13 04:22:41;;;;;;;45.70;37.87;;;4.50;99.90;;;;;;5013392;28;20961;-57
2021/11/13 04:25:07;;;;;;;29.17;25.37;;;4.60;99.90;;;;;;5012880;28;20431;-57
2021/11/13 04:27:34;;;;;;;24.87;22.33;;;4.70;99.90;;;;;;5013069;28;20823;-58
2021/11/13 04:30:00;;;;;;;25.57;22.80;;;4.80;99.90;;;;;;5013101;28;20896;-57
2021/11/13 04:32:29;;;;;;;25.13;22.63;;;4.90;99.90;;;;;;5013046;28;20407;-56
2021/11/13 04:37:21;;;;;;;19.20;17.20;;;4.90;99.90;;;;;;5013018;28;20932;-55
2021/11/13 04:39:49;;;;;;;22.07;19.77;;;4.90;99.90;;;;;;5012691;28;20422;-56
2021/11/13 04:42:16;;;;;;;21.70;19.60;;;5.00;99.90;;;;;;5013455;28;20272;-56
2021/11/13 04:44:43;;;;;;;20.10;18.20;;;5.00;99.90;;;;;;5012674;28;20434;-56
2021/11/13 04:47:08;;;;;;;20.00;18.10;;;4.90;99.90;;;;;;5012925;28;20422;-57
2021/11/13 04:49:34;;;;;;;20.03;18.03;;;4.90;99.90;;;;;;5013014;28;20411;-50
2021/11/13 04:52:03;;;;;;;21.77;19.47;;;5.00;99.90;;;;;;5013157;28;20182;-54
2021/11/13 04:54:29;;;;;;;20.83;18.63;;;4.90;99.90;;;;;;5012296;28;20974;-57
2021/11/13 04:56:55;;;;;;;21.20;18.30;;;5.00;99.90;;;;;;5013192;28;20403;-56
2021/11/13 04:59:21;;;;;;;19.43;17.53;;;5.00;99.90;;;;;;5013051;28;20407;-55
2021/11/13 05:01:47;;;;;;;21.90;19.10;;;5.10;99.90;;;;;;5015132;28;20175;-57
2021/11/13 05:04:13;;;;;;;19.63;17.73;;;5.20;99.90;;;;;;5016524;28;20544;-57
2021/11/13 05:06:38;;;;;;;22.70;20.40;;;5.10;99.90;;;;;;5016632;28;20439;-57
2021/11/13 05:09:04;;;;;;;20.20;18.10;;;5.20;99.90;;;;;;5016591;28;20176;-55
2021/11/13 05:11:30;;;;;;;22.10;20.00;;;5.30;99.90;;;;;;5016026;28;20172;-57
2021/11/13 05:13:55;;;;;;;24.67;22.10;;;5.30;99.90;;;;;;5016067;28;20431;-57
2021/11/13 05:16:21;;;;;;;21.27;19.13;;;5.30;99.90;;;;;;5016229;28;20175;-57
2021/11/13 05:18:47;;;;;;;20.23;18.17;;;5.40;99.90;;;;;;5016110;28;20172;-57
2021/11/13 05:21:13;;;;;;;21.90;19.70;;;5.30;99.90;;;;;;5016100;28;20168;-57
2021/11/13 05:23:39;;;;;;;23.97;21.57;;;5.40;99.90;;;;;;5015863;28;20460;-54
2021/11/13 05:26:06;;;;;;;21.00;18.90;;;5.30;99.90;;;;;;5015839;28;20399;-55
2021/11/13 05:28:32;;;;;;;20.87;18.47;;;5.30;99.90;;;;;;5016253;28;20501;-55
2021/11/13 05:30:58;;;;;;;19.67;17.67;;;5.40;99.90;;;;;;5015718;28;20931;-57
2021/11/13 05:33:24;;;;;;;22.30;20.03;;;5.40;99.90;;;;;;5016195;28;20411;-57
2021/11/13 05:35:51;;;;;;;21.13;19.00;;;5.30;99.90;;;;;;5015944;28;20541;-56
2021/11/13 05:38:17;;;;;;;20.10;18.00;;;5.20;99.90;;;;;;5016068;28;20446;-52
2021/11/13 05:40:43;;;;;;;19.87;17.90;;;5.20;99.90;;;;;;5015690;28;20418;-59
2021/11/13 05:43:09;;;;;;;20.83;18.73;;;5.20;99.90;;;;;;5015677;28;20457;-52
2021/11/13 05:45:35;;;;;;;23.97;21.07;;;5.30;99.90;;;;;;5015572;28;20438;-54
2021/11/13 05:48:01;;;;;;;22.13;19.73;;;5.30;99.90;;;;;;5015626;28;20172;-55
2021/11/13 05:50:27;;;;;;;24.37;21.97;;;5.40;99.90;;;;;;5015553;28;20483;-57
2021/11/13 05:52:53;;;;;;;23.00;20.60;;;5.30;99.90;;;;;;5015807;28;20167;-58
2021/11/13 05:55:23;;;;;;;20.33;18.23;;;5.30;99.90;;;;;;5041256;23;20337;-52
2021/11/13 05:57:49;;;;;;;21.17;19.13;;;5.30;99.90;;;;;;5024352;28;20822;-53
2021/11/13 06:00:17;;;;;;;22.10;19.90;;;5.20;99.90;;;;;;5014481;28;20403;-53
2021/11/13 06:02:43;;;;;;;20.50;18.40;;;5.20;99.90;;;;;;5015775;28;20199;-55
2021/11/13 06:05:10;;;;;;;22.63;20.40;;;5.20;99.90;;;;;;5015714;28;20431;-55
2021/11/13 06:07:36;;;;;;;22.20;19.37;;;5.30;99.90;;;;;;5015415;28;20411;-58
2021/11/13 06:10:03;;;;;;;18.63;16.83;;;5.40;99.90;;;;;;5015277;28;20406;-59
2021/11/13 06:12:29;;;;;;;21.63;19.40;;;5.50;99.90;;;;;;5015228;28;20462;-54
2021/11/13 06:14:54;;;;;;;18.93;17.20;;;5.60;99.90;;;;;;5014036;28;20442;-59
2021/11/13 06:17:20;;;;;;;20.37;18.47;;;5.60;99.90;;;;;;5015259;28;20184;-57
2021/11/13 06:19:45;;;;;;;19.07;17.20;;;5.60;99.90;;;;;;5015498;28;20522;-58
2021/11/13 06:22:11;;;;;;;21.43;19.30;;;5.60;99.90;;;;;;5015002;28;20254;-57
2021/11/13 06:24:37;;;;;;;24.63;22.23;;;5.70;99.90;;;;;;5015345;28;20199;-57
2021/11/13 06:27:03;;;;;;;21.00;18.43;;;5.70;99.90;;;;;;5015010;28;20963;-56
2021/11/13 06:29:29;;;;;;;20.70;18.50;;;5.70;99.90;;;;;;5013842;28;20588;-58
2021/11/13 06:31:54;;;;;;;22.87;20.57;;;5.80;99.90;;;;;;5014834;28;20262;-57
2021/11/13 06:34:20;;;;;;;20.60;18.53;;;5.90;99.90;;;;;;5014906;28;20172;-60
2021/11/13 06:36:45;;;;;;;20.90;18.70;;;5.90;99.90;;;;;;4998128;28;20700;-58
2021/11/13 06:39:11;;;;;;;22.53;20.30;;;6.00;99.90;;;;;;4995106;28;20168;-57
2021/11/13 06:41:37;;;;;;;19.00;16.97;;;6.00;99.90;;;;;;4994395;28;20540;-53
2021/11/13 06:44:03;;;;;;;22.00;19.80;;;6.10;99.90;;;;;;5001664;28;20563;-57
2021/11/13 06:46:28;;;;;;;21.10;19.10;;;5.90;99.90;;;;;;5012989;28;20283;-59
2021/11/13 06:48:54;;;;;;;22.03;19.80;;;6.00;99.90;;;;;;5013826;28;20179;-57
2021/11/13 06:51:21;;;;;;;21.30;18.33;;;6.00;99.90;;;;;;5012857;28;20179;-60
2021/11/13 06:53:46;;;;;;;22.37;20.13;;;5.90;99.90;;;;;;5013743;28;20550;-55
2021/11/13 06:56:13;;;;;;;22.80;19.83;;;5.80;99.90;;;;;;5014293;28;20517;-58
2021/11/13 06:58:38;;;;;;;24.73;22.13;;;6.00;99.90;;;;;;5012487;28;20657;-60
2021/11/13 07:01:04;;;;;;;20.40;18.47;;;6.10;99.90;;;;;;5013206;28;20506;-60
2021/11/13 07:03:30;;;;;;;17.60;15.87;;;6.10;99.90;;;;;;5014247;28;20549;-57
2021/11/13 07:05:56;;;;;;;17.37;15.67;;;6.10;99.90;;;;;;5014361;28;20520;-58
2021/11/13 07:08:21;;;;;;;19.07;17.17;;;6.10;99.90;;;;;;5012989;28;20181;-58
2021/11/13 07:10:52;;;;;;;20.80;18.70;;;6.10;99.90;;;;;;5014070;28;20187;-55
2021/11/13 07:13:18;;;;;;;22.90;19.63;;;6.20;99.90;;;;;;5013634;28;20180;-58
2021/11/13 07:15:45;;;;;;;16.93;15.13;;;6.30;99.90;;;;;;5014073;28;20478;-59
2021/11/13 07:18:11;;;;;;;19.60;17.57;;;6.40;99.90;;;;;;5012913;28;20501;-59
2021/11/13 07:20:37;;;;;;;19.47;17.47;;;6.50;99.90;;;;;;5014085;28;20418;-55
2021/11/13 07:23:04;;;;;;;19.87;17.80;;;6.50;99.90;;;;;;5013174;28;20196;-56
2021/11/13 07:25:30;;;;;;;18.80;16.90;;;6.60;99.90;;;;;;5013411;28;20190;-55
2021/11/13 07:28:03;;;;;;;18.83;16.93;;;6.60;99.90;;;;;;5013888;28;20461;-55
2021/11/13 07:30:38;;;;;;;18.90;16.97;;;6.70;99.90;;;;;;5013134;28;20554;-55
2021/11/13 07:33:04;;;;;;;17.33;15.63;;;6.70;99.90;;;;;;5013904;28;20389;-52
2021/11/13 07:35:29;;;;;;;18.43;16.63;;;6.80;99.90;;;;;;5014183;28;20944;-54
2021/11/13 07:37:56;;;;;;;18.97;17.10;;;6.90;99.90;;;;;;5013940;28;20895;-56
2021/11/13 07:40:21;;;;;;;19.53;17.43;;;6.80;99.90;;;;;;5014014;28;20176;-59
2021/11/13 07:42:47;;;;;;;18.27;16.47;;;6.80;99.90;;;;;;5012427;28;20561;-59
2021/11/13 07:45:13;;;;;;;18.57;16.63;;;6.90;99.90;;;;;;5013647;28;20963;-59
2021/11/13 07:47:41;;;;;;;18.83;16.83;;;7.00;99.90;;;;;;5013470;28;20170;-58
2021/11/13 07:50:11;;;;;;;17.30;15.60;;;7.00;99.90;;;;;;5013636;28;20192;-57
2021/11/13 07:52:37;;;;;;;17.83;16.03;;;6.90;99.90;;;;;;5013539;28;20423;-58
2021/11/13 07:55:04;;;;;;;17.43;15.50;;;7.10;99.90;;;;;;5012972;28;20472;-58
2021/11/13 07:57:29;;;;;;;16.37;14.67;;;7.10;99.90;;;;;;5013801;28;20180;-58
2021/11/13 07:59:55;;;;;;;17.73;16.03;;;7.00;99.90;;;;;;5013918;28;20899;-60
2021/11/13 08:02:20;;;;;;;16.47;14.77;;;6.90;99.90;;;;;;5013749;28;20177;-55
2021/11/13 08:04:46;;;;;;;19.67;17.87;;;7.10;99.90;;;;;;5012706;28;20199;-57
2021/11/13 08:07:12;;;;;;;17.23;15.30;;;7.10;99.90;;;;;;5013919;28;20180;-56
2021/11/13 08:09:37;;;;;;;15.83;14.43;;;7.20;99.90;;;;;;5013559;28;20604;-54
2021/11/13 08:12:03;;;;;;;17.70;15.57;;;7.50;99.90;;;;;;5013594;28;20256;-57
2021/11/13 08:14:29;;;;;;;18.03;16.13;;;7.50;99.90;;;;;;5013381;28;20169;-58
2021/11/13 08:16:55;;;;;;;17.43;15.73;;;7.50;99.90;;;;;;5013171;28;20444;-58
2021/11/13 08:19:20;;;;;;;17.97;16.03;;;7.70;99.90;;;;;;5013695;28;20180;-57
2021/11/13 08:21:46;;;;;;;15.77;14.07;;;7.90;99.90;;;;;;5013408;28;20412;-53
2021/11/13 08:24:12;;;;;;;15.93;14.23;;;8.10;99.90;;;;;;5013026;28;20545;-56
2021/11/13 08:26:38;;;;;;;14.93;13.43;;;8.30;99.90;;;;;;5012880;28;20195;-55
2021/11/13 08:29:04;;;;;;;15.30;13.80;;;8.30;99.90;;;;;;5013105;28;20175;-58
2021/11/13 08:31:29;;;;;;;13.43;11.83;;;8.30;99.90;;;;;;5012674;28;20431;-57
2021/11/13 08:33:55;;;;;;;13.80;12.40;;;8.30;99.90;;;;;;5013450;28;20416;-60
2021/11/13 08:36:21;;;;;;;14.30;12.70;;;8.40;99.90;;;;;;5016919;28;20574;-57
2021/11/13 08:38:46;;;;;;;18.83;12.70;;;8.40;99.90;;;;;;5017344;28;20178;-56
2021/11/13 08:41:12;;;;;;;15.80;14.20;;;8.30;99.90;;;;;;5016888;28;20637;-57
2021/11/13 08:43:38;;;;;;;15.03;13.53;;;8.40;99.90;;;;;;5017151;28;20684;-58
2021/11/13 08:46:04;;;;;;;14.90;13.50;;;8.70;99.90;;;;;;5016373;28;20687;-57
2021/11/13 08:48:29;;;;;;;34.07;31.17;;;8.90;99.90;;;;;;5015985;28;20205;-57
2021/11/13 08:50:55;;;;;;;33.20;30.63;;;8.80;99.90;;;;;;5016806;28;20614;-56
2021/11/13 08:53:21;;;;;;;22.93;20.73;;;8.80;99.90;;;;;;5016821;28;20637;-54
2021/11/13 08:55:47;;;;;;;15.77;13.63;;;8.90;99.90;;;;;;5017016;28;20972;-57
2021/11/13 08:58:13;;;;;;;14.00;12.70;;;9.00;99.90;;;;;;5016955;28;20194;-59
2021/11/13 09:00:53;;;;;;;14.20;12.83;;;8.80;99.90;;;;;;5016589;28;20186;-58
2021/11/13 09:03:32;;;;;;;14.17;12.83;;;8.90;99.90;;;;;;5016770;28;20787;-59
2021/11/13 09:05:59;;;;;;;12.40;11.13;;;9.10;99.90;;;;;;5016702;28;20432;-59
2021/11/13 09:08:25;;;;;;;13.50;12.30;;;9.20;99.90;;;;;;5016279;28;20402;-58
2021/11/13 09:10:52;;;;;;;13.00;11.80;;;9.30;99.90;;;;;;5016294;28;20407;-57
2021/11/13 09:13:21;;;;;;;13.03;11.83;;;9.40;99.90;;;;;;5016531;28;20446;-57
2021/11/13 09:15:48;;;;;;;12.90;11.57;;;9.40;99.90;;;;;;5016020;28;20437;-57
2021/11/13 09:18:14;;;;;;;13.83;12.53;;;9.50;99.90;;;;;;5016140;28;20419;-59
2021/11/13 09:20:41;;;;;;;13.30;12.00;;;9.50;99.90;;;;;;5016292;28;20778;-59
2021/11/13 09:23:13;;;;;;;12.53;11.23;;;9.70;99.90;;;;;;5015970;28;20550;-58
2021/11/13 09:25:40;;;;;;;14.27;12.00;;;9.70;99.90;;;;;;5016327;28;20429;-59
2021/11/13 09:28:06;;;;;;;11.97;10.80;;;9.90;99.90;;;;;;5016277;28;20420;-60
2021/11/13 09:33:08;;;;;;;12.87;11.57;;;10.00;99.90;;;;;;5011829;23;20285;-56
2021/11/13 09:35:36;;;;;;;12.53;11.33;;;10.30;99.90;;;;;;5015915;28;20437;-57
2021/11/13 09:38:02;;;;;;;12.90;11.67;;;10.20;99.90;;;;;;5015959;28;20449;-57
2021/11/13 09:40:29;;;;;;;14.23;12.90;;;10.30;99.90;;;;;;5016158;28;20914;-57
2021/11/13 09:42:58;;;;;;;12.33;11.23;;;10.40;99.90;;;;;;5015935;28;20910;-58
2021/11/13 09:45:24;;;;;;;12.50;11.20;;;10.60;99.90;;;;;;5014227;28;20574;-58
2021/11/13 09:47:52;;;;;;;14.00;12.60;;;11.10;99.90;;;;;;5032345;22;21017;-59
2021/11/13 09:50:20;;;;;;;14.03;12.60;;;11.00;99.90;;;;;;4998885;28;20440;-57
2021/11/13 09:52:46;;;;;;;13.40;11.90;;;11.10;99.90;;;;;;4996363;28;20396;-58
2021/11/13 09:55:14;;;;;;;14.50;13.20;;;11.10;99.90;;;;;;4996302;28;20768;-58
2021/11/13 09:57:40;;;;;;;13.63;12.33;;;11.20;99.90;;;;;;4983095;28;20473;-59
2021/11/13 10:00:09;;;;;;;15.37;13.83;;;11.20;99.90;;;;;;4976460;28;20405;-59
2021/11/13 10:02:34;;;;;;;15.10;13.70;;;11.10;99.90;;;;;;4976245;28;20456;-59
2021/11/13 10:05:00;;;;;;;16.40;12.67;;;11.30;99.90;;;;;;4976438;28;20417;-59
2021/11/13 10:07:26;;;;;;;17.10;15.40;;;11.40;99.90;;;;;;4976117;28;20666;-59
2021/11/13 10:09:51;;;;;;;15.03;13.60;;;11.20;99.90;;;;;;4976218;28;20166;-58
2021/11/13 10:12:17;;;;;;;13.00;11.80;;;11.20;99.90;;;;;;4976232;28;20200;-59
2021/11/13 10:14:43;;;;;;;13.50;12.10;;;11.30;99.90;;;;;;4977497;28;20168;-59
2021/11/13 10:17:21;;;;;;;16.43;12.90;;;11.40;99.90;;;;;;5014909;28;20218;-56
2021/11/13 10:19:47;;;;;;;12.53;11.33;;;11.40;99.90;;;;;;5015086;28;20470;-59
2021/11/13 10:22:13;;;;;;;12.80;11.50;;;11.40;99.90;;;;;;5014851;28;20417;-58
2021/11/13 10:24:46;;;;;;;13.20;11.87;;;11.40;99.90;;;;;;5001958;28;20404;-59
2021/11/13 10:27:12;;;;;;;14.33;12.53;;;11.50;99.90;;;;;;4976054;28;20615;-59
2021/11/13 10:29:38;;;;;;;13.37;11.97;;;11.50;99.90;;;;;;4976017;28;20417;-59
2021/11/13 10:32:08;;;;;;;13.00;11.87;;;11.50;99.90;;;;;;4975557;28;20447;-59
2021/11/13 10:34:38;;;;;;;12.63;11.43;;;11.60;99.90;;;;;;4975893;28;20405;-59
2021/11/13 10:37:06;;;;;;;14.23;12.87;;;11.70;99.90;;;;;;4976329;28;20423;-58
2021/11/13 10:39:41;;;;;;;15.77;13.80;;;11.70;99.90;;;;;;4975984;28;20424;-59
2021/11/13 10:42:18;;;;;;;14.17;12.90;;;11.50;99.90;;;;;;4975840;28;20927;-59
2021/11/13 10:44:50;;;;;;;16.67;14.73;;;11.40;99.90;;;;;;4977391;28;20404;-59
2021/11/13 10:47:15;;;;;;;17.10;15.40;;;11.40;99.90;;;;;;5014427;28;20851;-59
2021/11/13 10:49:41;;;;;;;17.10;15.40;;;11.50;99.90;;;;;;5014799;28;20562;-58
2021/11/13 10:52:09;;;;;;;18.77;16.53;;;11.50;99.90;;;;;;5014495;28;20165;-59
2021/11/13 10:54:36;;;;;;;16.10;14.53;;;10.90;99.90;;;;;;5014540;28;20428;-59
2021/11/13 10:57:05;;;;;;;17.80;16.07;;;11.00;99.90;;;;;;5014299;28;20489;-58
2021/11/13 10:59:33;;;;;;;16.90;15.33;;;11.20;99.90;;;;;;5013588;28;20421;-59
2021/11/13 11:02:03;;;;;;;18.63;16.73;;;11.10;99.90;;;;;;5013890;28;20422;-60
2021/11/13 11:04:35;;;;;;;17.47;15.60;;;11.00;99.90;;;;;;5014266;28;20461;-59
2021/11/13 11:07:09;;;;;;;19.50;17.60;;;10.70;99.90;;;;;;5014660;28;20422;-59
2021/11/13 11:09:46;;;;;;;17.87;16.07;;;10.80;99.90;;;;;;5014454;28;20458;-59
2021/11/13 11:12:18;;;;;;;19.63;17.83;;;10.80;99.90;;;;;;5014533;28;20401;-56
2021/11/13 11:14:46;;;;;;;25.57;20.37;;;10.80;99.90;;;;;;5012658;28;20502;-58
2021/11/13 11:17:15;;;;;;;19.83;17.40;;;10.80;99.90;;;;;;5013800;28;21012;-59
2021/11/13 11:19:42;;;;;;;18.53;16.60;;;10.50;99.90;;;;;;5014390;28;20452;-60
2021/11/13 11:22:13;;;;;;;17.50;15.80;;;10.40;99.90;;;;;;5014081;28;20465;-59
2021/11/13 11:24:42;;;;;;;19.20;17.20;;;10.50;99.90;;;;;;5014291;28;20467;-59
2021/11/13 11:27:16;;;;;;;17.93;16.13;;;10.40;99.90;;;;;;5013759;28;20425;-58
2021/11/13 11:30:16;;;;;;;23.30;20.80;;;10.40;99.90;;;;;;5014321;28;20444;-59
2021/11/13 11:32:42;;;;;;;22.70;20.40;;;10.50;99.90;;;;;;5008978;28;20508;-60
2021/11/13 11:35:34;;;;;;;21.33;19.23;;;10.60;99.90;;;;;;5013827;28;20485;-59
2021/11/13 11:38:10;;;;;;;17.83;16.13;;;10.70;99.90;;;;;;5013730;28;20190;-59
2021/11/13 11:40:40;;;;;;;41.87;29.77;;;10.60;99.90;;;;;;5014123;28;20850;-60
2021/11/13 11:43:06;;;;;;;32.10;25.53;;;10.80;99.90;;;;;;5013865;28;20809;-60
2021/11/13 11:45:35;;;;;;;39.13;30.83;;;10.90;99.90;;;;;;5013489;28;20415;-59
2021/11/13 11:48:00;;;;;;;39.37;31.67;;;10.90;99.90;;;;;;5013415;28;20466;-59
2021/11/13 11:50:31;;;;;;;25.93;19.13;;;11.10;99.90;;;;;;4996958;28;20435;-59
2021/11/13 11:52:58;;;;;;;36.80;30.13;;;11.10;99.90;;;;;;4986516;28;20241;-58
2021/11/13 11:55:25;;;;;;;43.47;38.60;;;10.90;99.90;;;;;;4986395;28;20412;-57
2021/11/13 11:57:59;;;;;;;24.73;22.23;;;10.90;99.90;;;;;;5012399;28;20431;-57
2021/11/13 12:00:29;;;;;;;22.17;20.07;;;10.80;99.90;;;;;;5013724;28;20409;-58
2021/11/13 12:02:58;;;;;;;28.67;25.57;;;10.70;99.90;;;;;;5003130;28;20546;-59
2021/11/13 12:05:26;;;;;;;24.30;22.00;;;10.70;99.90;;;;;;4993411;28;20475;-60
2021/11/13 12:07:53;;;;;;;22.07;20.00;;;10.80;99.90;;;;;;4993801;28;20436;-58
2021/11/13 12:10:28;;;;;;;19.43;17.53;;;10.80;99.90;;;;;;5010610;28;20446;-53
2021/11/13 12:13:26;;;;;;;19.47;17.57;;;10.70;99.90;;;;;;5017859;28;20399;-59
2021/11/13 12:16:01;;;;;;;23.10;20.70;;;10.70;99.90;;;;;;5010365;28;20425;-59
2021/11/13 12:18:32;;;;;;;20.80;18.90;;;10.70;99.90;;;;;;4996032;28;20429;-57
2021/11/13 12:21:03;;;;;;;20.20;18.10;;;10.90;99.90;;;;;;4997757;28;20402;-59
2021/11/13 12:23:39;;;;;;;20.53;18.53;;;10.90;99.90;;;;;;4997788;28;20459;-59
2021/11/13 12:26:10;;;;;;;20.97;19.10;;;10.90;99.90;;;;;;4997916;28;20394;-60
2021/11/13 12:28:56;;;;;;;18.93;17.10;;;10.70;99.90;;;;;;4998069;28;20384;-58
2021/11/13 12:31:36;;;;;;;22.83;20.43;;;10.90;99.90;;;;;;4997978;28;20388;-59
2021/11/13 12:34:06;;;;;;;20.77;18.80;;;11.00;99.90;;;;;;5017380;28;20396;-59
2021/11/13 12:36:46;;;;;;;19.33;17.37;;;10.90;99.90;;;;;;5017551;28;20433;-56
2021/11/13 12:39:15;;;;;;;19.93;17.97;;;10.90;99.90;;;;;;5017295;28;20402;-57